createdAt,value
2022-10-23T00:01:46.251Z,92.79
2022-10-23T00:04:21.552Z,92.95
2022-10-23T00:06:50.194Z,92.96
2022-10-23T00:09:21.554Z,93.32
2022-10-23T00:11:50.922Z,93.52
2022-10-23T00:14:24.934Z,93.43
2022-10-23T00:16:52.615Z,93.64
2022-10-23T00:19:19.680Z,93.70
2022-10-23T00:21:46.710Z,93.76
2022-10-23T00:24:13.713Z,93.80
2022-10-23T00:26:41.777Z,93.92
2022-10-23T00:29:10.430Z,93.81
2022-10-23T00:31:38.718Z,94.05
2022-10-23T00:34:08.351Z,94.06
2022-10-23T00:36:36.302Z,94.20
2022-10-23T00:39:04.518Z,94.26
2022-10-23T00:41:32.584Z,94.19
2022-10-23T00:44:28.127Z,94.24
2022-10-23T00:46:55.957Z,94.19
2022-10-23T00:49:23.575Z,94.25
2022-10-23T00:51:56.217Z,94.50
2022-10-23T00:54:29.561Z,94.43
2022-10-23T00:57:02.658Z,94.54
2022-10-23T00:59:30.970Z,94.41
2022-10-23T01:01:59.644Z,94.50
2022-10-23T01:04:28.783Z,94.44
2022-10-23T01:07:28.600Z,94.66
2022-10-23T01:10:25.939Z,94.91
2022-10-23T01:13:23.630Z,95.15
2022-10-23T01:16:13.852Z,95.15
2022-10-23T01:19:38.728Z,95.05
2022-10-23T01:22:33.079Z,95.18
2022-10-23T01:25:40.723Z,95.09
2022-10-23T01:28:17.859Z,95.31
2022-10-23T01:30:45.419Z,95.27
2022-10-23T01:33:25.975Z,95.52
2022-10-23T01:36:03.544Z,95.51
2022-10-23T01:38:46.529Z,95.52
2022-10-23T01:41:55.164Z,95.47
2022-10-23T01:44:43.095Z,95.48
2022-10-23T01:47:14.062Z,95.46
2022-10-23T01:49:57.867Z,95.55
2022-10-23T01:52:26.045Z,95.44
2022-10-23T01:55:00.375Z,95.43
2022-10-23T01:57:34.809Z,95.50
2022-10-23T02:00:09.014Z,95.48
2022-10-23T02:02:53.231Z,95.49
2022-10-23T02:05:31.043Z,95.42
2022-10-23T02:08:03.111Z,95.63
2022-10-23T02:10:46.807Z,96.01
2022-10-23T02:13:35.082Z,95.84
2022-10-23T02:16:30.818Z,95.72
2022-10-23T02:19:17.761Z,95.80
2022-10-23T02:22:23.788Z,95.45
2022-10-23T02:25:02.043Z,95.77
2022-10-23T02:27:40.850Z,95.77
2022-10-23T02:30:13.494Z,95.78
2022-10-23T02:32:49.188Z,95.75
2022-10-23T02:35:22.091Z,95.96
2022-10-23T02:37:56.594Z,95.82
2022-10-23T02:40:43.295Z,95.65
2022-10-23T02:43:24.567Z,95.80
2022-10-23T02:46:25.580Z,95.89
2022-10-23T02:49:16.371Z,95.89
2022-10-23T02:52:01.010Z,95.73
2022-10-23T02:55:05.133Z,95.73
2022-10-23T02:58:04.167Z,95.86
2022-10-23T03:00:35.865Z,95.89
2022-10-23T03:03:17.176Z,96.08
2022-10-23T03:05:47.532Z,96.37
2022-10-23T03:08:15.515Z,96.55
2022-10-23T03:10:43.107Z,96.84
2022-10-23T03:13:11.807Z,96.98
2022-10-23T03:15:44.049Z,97.35
2022-10-23T03:18:15.159Z,97.54
2022-10-23T03:20:46.768Z,97.76
2022-10-23T03:23:15.009Z,97.96
2022-10-23T03:25:42.975Z,97.97
2022-10-23T03:28:13.584Z,97.93
2022-10-23T03:30:40.573Z,98.13
2022-10-23T03:33:07.994Z,98.18
2022-10-23T03:35:35.935Z,98.40
2022-10-23T03:38:03.744Z,98.28
2022-10-23T03:40:30.806Z,98.40
2022-10-23T03:42:58.016Z,98.71
2022-10-23T03:45:26.292Z,98.86
2022-10-23T03:47:53.481Z,99.09
2022-10-23T03:50:20.802Z,98.97
2022-10-23T03:52:48.239Z,99.05
2022-10-23T03:55:15.519Z,99.11
2022-10-23T03:57:42.830Z,99.18
2022-10-23T04:00:12.441Z,99.13
2022-10-23T04:02:47.631Z,99.22
2022-10-23T04:05:15.292Z,99.35
2022-10-23T04:07:51.402Z,99.18
2022-10-23T04:10:18.525Z,99.09
2022-10-23T04:12:45.923Z,99.11
2022-10-23T04:15:13.086Z,99.14
2022-10-23T04:17:42.873Z,99.15
2022-10-23T04:20:10.416Z,99.02
2022-10-23T04:22:37.573Z,99.01
2022-10-23T04:25:06.920Z,99.18
2022-10-23T04:27:34.986Z,99.17
2022-10-23T04:30:03.712Z,99.21
2022-10-23T04:32:31.455Z,99.27
2022-10-23T04:34:58.545Z,99.29
2022-10-23T04:37:28.003Z,98.94
2022-10-23T04:39:55.044Z,99.30
2022-10-23T04:42:22.195Z,99.34
2022-10-23T04:44:49.260Z,99.39
2022-10-23T04:47:16.359Z,99.32
2022-10-23T04:49:56.072Z,99.10
2022-10-23T04:52:42.214Z,99.13
2022-10-23T04:55:35.773Z,99.13
2022-10-23T04:58:12.720Z,99.13
2022-10-23T05:00:39.819Z,98.96
2022-10-23T05:03:07.303Z,98.90
2022-10-23T05:05:39.338Z,99.07
2022-10-23T05:08:23.643Z,99.33
2022-10-23T05:11:28.904Z,99.32
2022-10-23T05:13:56.030Z,99.43
2022-10-23T05:16:59.799Z,99.42
2022-10-23T05:19:46.098Z,99.59
2022-10-23T05:22:15.152Z,99.52
2022-10-23T05:24:52.052Z,99.17
2022-10-23T05:27:22.946Z,99.19
2022-10-23T05:29:51.631Z,99.00
2022-10-23T05:32:22.472Z,98.88
2022-10-23T05:34:50.707Z,98.95
2022-10-23T05:37:19.333Z,98.77
2022-10-23T05:39:46.412Z,98.86
2022-10-23T05:42:17.715Z,98.77
2022-10-23T05:44:45.836Z,98.96
2022-10-23T05:47:34.139Z,99.07
2022-10-23T05:50:16.514Z,99.02
2022-10-23T05:52:53.217Z,99.00
2022-10-23T05:55:30.119Z,98.94
2022-10-23T05:58:15.192Z,98.93
2022-10-23T06:01:09.737Z,98.81
2022-10-23T06:04:01.454Z,98.73
2022-10-23T06:06:49.504Z,98.55
2022-10-23T06:09:17.371Z,98.62
2022-10-23T06:11:47.647Z,98.74
2022-10-23T06:14:19.850Z,98.51
2022-10-23T06:16:49.266Z,98.50
2022-10-23T06:19:17.560Z,98.48
2022-10-23T06:21:45.188Z,98.45
2022-10-23T06:24:14.729Z,98.41
2022-10-23T06:26:51.990Z,98.48
2022-10-23T06:29:22.427Z,98.52
2022-10-23T06:31:51.516Z,98.50
2022-10-23T06:34:18.619Z,98.47
2022-10-23T06:36:46.712Z,98.54
2022-10-23T06:39:32.247Z,98.54
2022-10-23T06:42:26.052Z,98.44
2022-10-23T06:44:56.930Z,98.68
2022-10-23T06:47:44.494Z,98.99
2022-10-23T06:50:31.117Z,98.89
2022-10-23T06:53:00.591Z,98.71
2022-10-23T06:55:29.641Z,98.51
2022-10-23T06:57:57.052Z,98.32
2022-10-23T07:00:25.433Z,98.34
2022-10-23T07:02:54.108Z,98.13
2022-10-23T07:05:21.248Z,98.07
2022-10-23T07:07:48.550Z,97.81
2022-10-23T07:10:22.940Z,97.40
2022-10-23T07:13:00.921Z,97.61
2022-10-23T07:15:38.400Z,97.44
2022-10-23T07:18:14.585Z,97.19
2022-10-23T07:21:01.655Z,96.84
2022-10-23T07:23:30.628Z,96.63
2022-10-23T07:26:05.596Z,96.76
2022-10-23T07:28:35.224Z,96.18
2022-10-23T07:31:03.468Z,96.12
2022-10-23T07:33:52.024Z,96.08
2022-10-23T07:36:21.379Z,95.65
2022-10-23T07:38:48.679Z,95.27
2022-10-23T07:41:16.324Z,94.97
2022-10-23T07:43:44.779Z,94.89
2022-10-23T07:46:12.755Z,94.66
2022-10-23T07:48:48.152Z,94.39
2022-10-23T07:51:17.216Z,94.04
2022-10-23T07:53:51.700Z,94.29
2022-10-23T07:56:37.581Z,93.72
2022-10-23T07:59:35.848Z,93.16
2022-10-23T08:02:15.993Z,93.06
2022-10-23T08:04:49.779Z,92.96
2022-10-23T08:07:26.329Z,92.58
2022-10-23T08:09:56.573Z,92.29
2022-10-23T08:12:23.941Z,91.88
2022-10-23T08:14:51.013Z,91.70
2022-10-23T08:17:19.020Z,91.59
2022-10-23T08:20:15.352Z,91.26
2022-10-23T08:22:44.873Z,91.32
2022-10-23T08:25:17.733Z,90.43
2022-10-23T08:27:46.319Z,90.13
2022-10-23T08:30:15.184Z,90.14
2022-10-23T08:32:43.351Z,90.01
2022-10-23T08:35:14.775Z,90.13
2022-10-23T08:37:42.233Z,89.92
2022-10-23T08:40:22.984Z,89.87
2022-10-23T08:43:37.007Z,90.04
2022-10-23T08:46:30.277Z,89.67
2022-10-23T08:49:53.126Z,89.57
2022-10-23T08:52:27.471Z,89.59
2022-10-23T08:55:16.418Z,89.36
2022-10-23T08:57:57.038Z,88.93
2022-10-23T09:00:25.503Z,88.99
2022-10-23T09:02:54.564Z,89.00
2022-10-23T09:06:08.847Z,88.67
2022-10-23T09:08:49.396Z,88.70
2022-10-23T09:12:05.042Z,88.25
2022-10-23T09:14:55.286Z,88.57
2022-10-23T09:17:26.576Z,88.36
2022-10-23T09:20:23.250Z,87.56
2022-10-23T09:23:00.208Z,87.67
2022-10-23T09:25:37.810Z,87.45
2022-10-23T09:28:06.371Z,87.23
2022-10-23T09:30:38.321Z,85.91
2022-10-23T09:33:26.647Z,85.12
2022-10-23T09:36:02.679Z,85.72
2022-10-23T09:38:58.927Z,85.65
2022-10-23T09:41:42.916Z,85.76
2022-10-23T09:44:29.824Z,84.86
2022-10-23T09:47:13.498Z,84.82
2022-10-23T09:49:49.793Z,85.24
2022-10-23T09:52:17.696Z,85.08
2022-10-23T09:54:47.688Z,84.54
2022-10-23T09:57:38.246Z,84.32
2022-10-23T10:00:21.386Z,84.43
2022-10-23T10:03:20.551Z,84.01
2022-10-23T10:06:28.705Z,82.78
2022-10-23T10:09:02.748Z,83.04
2022-10-23T10:11:51.580Z,83.00
2022-10-23T10:14:40.172Z,82.75
2022-10-23T10:17:33.776Z,82.31
2022-10-23T10:20:26.189Z,82.96
2022-10-23T10:23:04.147Z,82.53
2022-10-23T10:25:39.959Z,81.49
2022-10-23T10:28:41.112Z,82.22
2022-10-23T10:31:30.012Z,81.61
2022-10-23T10:34:18.675Z,81.66
2022-10-23T10:37:00.965Z,81.20
2022-10-23T10:39:39.738Z,81.17
2022-10-23T10:42:17.263Z,81.02
2022-10-23T10:44:50.286Z,80.95
2022-10-23T10:47:56.704Z,81.36
2022-10-23T10:50:46.778Z,80.53
2022-10-23T10:54:15.998Z,80.54
2022-10-23T10:56:47.438Z,80.38
2022-10-23T10:59:24.417Z,80.26
2022-10-23T11:02:31.553Z,80.73
2022-10-23T11:05:31.749Z,80.52
2022-10-23T11:08:44.684Z,80.31
2022-10-23T11:11:40.595Z,79.83
2022-10-23T11:14:27.551Z,79.47
2022-10-23T11:17:20.955Z,78.40
2022-10-23T11:20:29.546Z,78.23
2022-10-23T11:23:22.916Z,78.30
2022-10-23T11:26:07.631Z,77.43
2022-10-23T11:29:30.168Z,77.72
2022-10-23T11:32:21.920Z,77.68
2022-10-23T11:35:19.200Z,76.06
2022-10-23T11:38:14.959Z,76.32
2022-10-23T11:41:00.022Z,76.12
2022-10-23T11:43:48.921Z,76.17
2022-10-23T11:46:21.900Z,75.09
2022-10-23T11:48:54.210Z,75.03
2022-10-23T11:51:40.935Z,75.08
2022-10-23T11:54:28.650Z,74.21
2022-10-23T11:57:22.557Z,74.20
2022-10-23T11:59:49.523Z,74.40
2022-10-23T12:02:39.561Z,73.45
2022-10-23T12:05:29.560Z,73.13
2022-10-23T12:08:01.098Z,71.85
2022-10-23T12:10:45.806Z,70.37
2022-10-23T12:13:34.297Z,70.48
2022-10-23T12:16:01.828Z,70.62
2022-10-23T12:18:29.236Z,69.97
2022-10-23T12:21:03.264Z,69.32
2022-10-23T12:24:06.741Z,69.64
2022-10-23T12:26:56.123Z,69.63
2022-10-23T12:30:04.955Z,70.01
2022-10-23T12:33:14.139Z,70.34
2022-10-23T12:36:16.237Z,69.27
2022-10-23T12:38:47.976Z,69.80
2022-10-23T12:41:22.592Z,69.59
2022-10-23T12:44:04.092Z,68.55
2022-10-23T12:46:41.041Z,68.30
2022-10-23T12:49:20.629Z,69.14
2022-10-23T12:52:07.085Z,68.39
2022-10-23T12:54:39.586Z,68.74
2022-10-23T12:57:25.794Z,68.31
2022-10-23T13:00:02.468Z,69.02
2022-10-23T13:02:32.527Z,68.58
2022-10-23T13:05:07.851Z,69.00
2022-10-23T13:07:44.669Z,69.23
2022-10-23T13:10:20.843Z,69.20
2022-10-23T13:13:07.719Z,69.51
2022-10-23T13:15:44.060Z,69.73
2022-10-23T13:18:16.890Z,70.03
2022-10-23T13:20:52.939Z,69.64
2022-10-23T13:23:34.651Z,70.01
2022-10-23T13:26:34.696Z,70.35
2022-10-23T13:29:08.787Z,70.06
2022-10-23T13:31:36.997Z,70.16
2022-10-23T13:34:16.667Z,70.33
2022-10-23T13:37:01.018Z,70.08
2022-10-23T13:39:33.782Z,70.29
2022-10-23T13:42:13.069Z,70.37
2022-10-23T13:44:41.040Z,70.11
2022-10-23T13:47:15.835Z,70.68
2022-10-23T13:49:45.063Z,70.23
2022-10-23T13:52:23.372Z,70.58
2022-10-23T13:54:52.394Z,70.32
2022-10-23T13:57:19.419Z,69.84
2022-10-23T13:59:46.367Z,70.23
2022-10-23T14:02:24.866Z,70.05
2022-10-23T14:04:52.267Z,70.12
2022-10-23T14:07:19.427Z,69.99
2022-10-23T14:09:46.518Z,70.17
2022-10-23T14:12:13.746Z,70.22
2022-10-23T14:14:40.818Z,69.98
2022-10-23T14:17:07.859Z,70.16
2022-10-23T14:22:04.027Z,70.80
2022-10-23T14:24:31.080Z,70.71
2022-10-23T14:26:59.587Z,70.12
2022-10-23T14:29:27.109Z,70.56
2022-10-23T14:31:54.344Z,70.46
2022-10-23T14:34:22.744Z,71.05
2022-10-23T14:36:56.762Z,71.37
2022-10-23T14:39:31.005Z,70.83
2022-10-23T14:41:58.052Z,70.81
2022-10-23T14:44:25.433Z,70.86
2022-10-23T14:46:52.567Z,70.70
2022-10-23T14:49:19.676Z,71.13
2022-10-23T14:51:46.672Z,71.22
2022-10-23T14:54:14.516Z,71.56
2022-10-23T14:56:41.728Z,72.02
2022-10-23T14:59:10.746Z,71.95
2022-10-23T15:01:45.370Z,72.22
2022-10-23T15:04:15.195Z,72.20
2022-10-23T15:06:47.129Z,72.62
2022-10-23T15:09:14.644Z,72.48
2022-10-23T15:11:49.829Z,73.02
2022-10-23T15:14:16.967Z,73.44
2022-10-23T15:16:43.925Z,73.65
2022-10-23T15:19:19.089Z,73.64
2022-10-23T15:21:47.927Z,73.95
2022-10-23T15:24:18.834Z,74.16
2022-10-23T15:26:46.225Z,74.24
2022-10-23T15:29:14.929Z,74.37
2022-10-23T15:31:52.083Z,74.43
2022-10-23T15:34:23.871Z,74.51
2022-10-23T15:36:54.027Z,74.16
2022-10-23T15:39:27.107Z,74.53
2022-10-23T15:41:56.879Z,74.60
2022-10-23T15:44:27.889Z,74.88
2022-10-23T15:46:58.448Z,75.17
2022-10-23T15:49:29.545Z,75.30
2022-10-23T15:51:57.505Z,75.63
2022-10-23T15:54:28.096Z,75.58
2022-10-23T15:57:23.188Z,75.92
2022-10-23T15:59:51.141Z,76.12
2022-10-23T16:02:18.276Z,76.42
2022-10-23T16:04:45.379Z,76.53
2022-10-23T16:07:12.356Z,76.63
2022-10-23T16:09:39.392Z,76.48
2022-10-23T16:12:07.021Z,76.79
2022-10-23T16:14:34.022Z,76.79
2022-10-23T16:17:01.149Z,77.17
2022-10-23T16:19:28.107Z,77.00
2022-10-23T16:21:55.131Z,77.40
2022-10-23T16:24:23.146Z,77.49
2022-10-23T16:26:53.158Z,77.54
2022-10-23T16:29:22.119Z,77.70
2022-10-23T16:31:49.830Z,77.42
2022-10-23T16:34:16.886Z,77.70
2022-10-23T16:36:45.030Z,77.83
2022-10-23T16:39:14.818Z,77.67
2022-10-23T16:42:00.240Z,77.45
2022-10-23T16:44:37.616Z,77.96
2022-10-23T16:47:06.258Z,77.92
2022-10-23T16:49:33.971Z,78.27
2022-10-23T16:52:00.958Z,78.50
2022-10-23T16:54:27.935Z,78.71
2022-10-23T16:56:55.259Z,78.96
2022-10-23T16:59:22.396Z,79.21
2022-10-23T17:01:50.070Z,79.32
2022-10-23T17:04:17.363Z,79.67
2022-10-23T17:06:44.743Z,79.80
2022-10-23T17:09:12.108Z,80.18
2022-10-23T17:11:41.200Z,80.19
2022-10-23T17:14:21.039Z,80.17
2022-10-23T17:16:52.145Z,80.44
2022-10-23T17:19:43.765Z,80.55
2022-10-23T17:22:12.564Z,80.62
2022-10-23T17:24:41.463Z,81.08
2022-10-23T17:27:09.562Z,81.15
2022-10-23T17:29:37.298Z,81.37
2022-10-23T17:32:05.029Z,81.36
2022-10-23T17:34:32.704Z,81.50
2022-10-23T17:36:59.909Z,81.74
2022-10-23T17:39:31.143Z,81.87
2022-10-23T17:41:58.527Z,82.04
2022-10-23T17:44:25.813Z,82.15
2022-10-23T17:46:55.193Z,82.00
2022-10-23T17:49:24.054Z,82.16
2022-10-23T17:51:54.653Z,82.13
2022-10-23T17:54:23.463Z,82.36
2022-10-23T17:56:50.557Z,82.14
2022-10-23T17:59:21.141Z,82.58
2022-10-23T18:01:49.505Z,82.29
2022-10-23T18:04:19.767Z,82.18
2022-10-23T18:06:53.490Z,82.27
2022-10-23T18:09:22.688Z,82.34
2022-10-23T18:11:50.340Z,82.18
2022-10-23T18:14:20.245Z,82.45
2022-10-23T18:16:48.448Z,82.04
2022-10-23T18:19:18.207Z,82.23
2022-10-23T18:21:46.300Z,82.17
2022-10-23T18:24:13.714Z,82.12
2022-10-23T18:26:48.248Z,81.93
2022-10-23T18:29:17.460Z,82.18
2022-10-23T18:31:45.858Z,82.03
2022-10-23T18:34:16.128Z,81.93
2022-10-23T18:36:43.664Z,81.81
2022-10-23T18:39:15.430Z,81.87
2022-10-23T18:41:44.868Z,81.77
2022-10-23T18:44:18.209Z,82.07
2022-10-23T18:46:47.696Z,82.04
2022-10-23T18:49:18.323Z,82.15
2022-10-23T18:51:45.878Z,82.29
2022-10-23T18:54:15.921Z,82.60
2022-10-23T18:56:44.014Z,82.84
2022-10-23T18:59:15.983Z,83.17
2022-10-23T19:01:43.395Z,83.31
2022-10-23T19:04:12.974Z,83.34
2022-10-23T19:06:40.295Z,83.49
2022-10-23T19:09:10.195Z,83.31
2022-10-23T19:11:37.708Z,83.37
2022-10-23T19:14:05.718Z,83.26
2022-10-23T19:16:58.641Z,83.16
2022-10-23T19:19:31.925Z,83.19
2022-10-23T19:22:02.435Z,83.11
2022-10-23T19:24:39.861Z,82.94
2022-10-23T19:27:07.270Z,82.92
2022-10-23T19:29:40.008Z,82.98
2022-10-23T19:32:09.106Z,82.71
2022-10-23T19:34:37.195Z,82.60
2022-10-23T19:37:04.500Z,82.50
2022-10-23T19:39:31.819Z,82.53
2022-10-23T19:42:00.321Z,82.20
2022-10-23T19:44:27.717Z,81.92
2022-10-23T19:46:54.953Z,81.72
2022-10-23T19:49:23.907Z,81.70
2022-10-23T19:51:51.737Z,80.44
2022-10-23T19:54:23.929Z,80.29
2022-10-23T19:56:50.939Z,80.37
2022-10-23T19:59:18.740Z,81.29
2022-10-23T20:01:47.997Z,80.93
2022-10-23T20:04:18.509Z,80.83
2022-10-23T20:06:46.947Z,81.55
2022-10-23T20:09:14.038Z,82.89
2022-10-23T20:11:41.901Z,83.80
2022-10-23T20:14:09.153Z,84.46
2022-10-23T20:16:39.333Z,85.12
2022-10-23T20:19:10.819Z,85.39
2022-10-23T20:21:40.843Z,85.49
2022-10-23T20:24:11.577Z,85.75
2022-10-23T20:26:54.223Z,85.96
2022-10-23T20:29:24.937Z,86.23
2022-10-23T20:31:52.837Z,86.36
2022-10-23T20:34:19.967Z,86.36
2022-10-23T20:36:49.412Z,86.40
2022-10-23T20:39:25.490Z,86.26
2022-10-23T20:41:55.288Z,86.41
2022-10-23T20:44:23.786Z,86.42
2022-10-23T20:46:51.203Z,86.54
2022-10-23T20:49:19.504Z,86.68
2022-10-23T20:51:54.893Z,86.19
2022-10-23T20:54:26.967Z,86.07
2022-10-23T20:56:55.231Z,85.82
2022-10-23T20:59:22.439Z,85.87
2022-10-23T21:01:53.049Z,86.55
2022-10-23T21:04:27.404Z,87.28
2022-10-23T21:07:12.856Z,87.38
2022-10-23T21:09:40.112Z,87.77
2022-10-23T21:12:07.884Z,88.16
2022-10-23T21:14:36.213Z,88.45
2022-10-23T21:17:03.488Z,88.78
2022-10-23T21:19:30.812Z,89.31
2022-10-23T21:21:57.803Z,89.50
2022-10-23T21:24:24.936Z,89.75
2022-10-23T21:26:51.987Z,90.30
2022-10-23T21:29:20.112Z,90.81
2022-10-23T21:32:01.062Z,91.41
2022-10-23T21:34:29.769Z,91.66
2022-10-23T21:37:14.081Z,91.55
2022-10-23T21:39:44.065Z,91.82
2022-10-23T21:42:13.159Z,91.95
2022-10-23T21:44:40.564Z,92.32
2022-10-23T21:47:07.700Z,92.30
2022-10-23T21:49:34.884Z,92.66
2022-10-23T21:52:01.965Z,92.89
2022-10-23T21:54:29.933Z,93.18
2022-10-23T21:56:56.947Z,93.76
2022-10-23T21:59:29.088Z,94.47
2022-10-23T22:01:59.351Z,94.85
2022-10-23T22:04:26.519Z,94.93
2022-10-23T22:06:53.614Z,94.61
2022-10-23T22:09:22.506Z,94.41
2022-10-23T22:11:54.325Z,94.12
2022-10-23T22:14:23.535Z,94.61
2022-10-23T22:16:50.629Z,94.89
2022-10-23T22:19:21.492Z,94.88
2022-10-23T22:21:50.862Z,94.84
2022-10-23T22:24:18.533Z,94.84
2022-10-23T22:26:51.360Z,94.65
2022-10-23T22:29:23.247Z,94.37
2022-10-23T22:31:51.077Z,94.33
2022-10-23T22:37:12.259Z,93.70
2022-10-23T22:39:40.467Z,93.39
2022-10-23T22:42:07.756Z,93.33
2022-10-23T22:44:35.745Z,93.33
2022-10-23T22:47:03.402Z,93.28
2022-10-23T22:49:30.507Z,93.15
2022-10-23T22:51:57.623Z,93.12
2022-10-23T22:54:24.783Z,93.09
2022-10-23T22:56:51.845Z,92.80
2022-10-23T22:59:18.819Z,92.72
2022-10-23T23:01:47.618Z,92.38
2022-10-23T23:04:37.923Z,92.36
2022-10-23T23:07:10.762Z,92.33
2022-10-23T23:09:43.637Z,92.04
2022-10-23T23:12:13.732Z,92.13
2022-10-23T23:14:41.604Z,92.04
2022-10-23T23:17:09.609Z,91.93
2022-10-23T23:19:39.192Z,92.07
2022-10-23T23:22:06.431Z,91.90
2022-10-23T23:24:33.869Z,92.02
2022-10-23T23:27:01.071Z,92.16
2022-10-23T23:29:29.530Z,92.11
2022-10-23T23:31:56.795Z,92.20
2022-10-23T23:34:23.873Z,92.22
2022-10-23T23:36:50.833Z,92.22
2022-10-23T23:39:17.909Z,92.20
2022-10-23T23:41:44.955Z,92.19
2022-10-23T23:44:11.994Z,92.10
2022-10-23T23:46:39.043Z,91.98
2022-10-23T23:49:07.209Z,92.09
2022-10-23T23:51:34.171Z,92.04
2022-10-23T23:54:01.188Z,91.96
2022-10-23T23:56:28.288Z,91.87
2022-10-23T23:58:55.312Z,91.92
